Westpoint, Tennessee
Current Conditions -  °F | °C
As of 11:53 PM on Friday 19 Dec 2014 (Local Time) from KMSL Reporting Station
Overcast Overcast  
Wind Chill: 39°   Ceiling: 8500
Heat Index: 39°   Visibility: 9mi
Dew Point: 31°   Wind: 0mph
Humidity: 73%   Direction: NA
Pressure: 30.2"   Gusts: NA
Location:  35.13°N, 87.53°W
Report Text: KMSL 200553Z AUTO 00000KT 9SM OVC085 04/M01 A3020 RMK AO2 SLP228 60000 T00391006 10056 20039 400670039 58015
Loading
Personal Weather Stations






























Interactive Weather Map New forecast layout! Learn more

10-Day Weather Forecast

Advertisements
Track Severe Weather on mobile